sensor_id;sensor_type;location;lat;lon;timestamp;P1;durP1;ratioP1;P2;durP2;ratioP2
6420;SDS011;3243;50.958;7.012;2023-11-21T00:01:32;9.70;;;6.10;;
6420;SDS011;3243;50.958;7.012;2023-11-21T00:03:59;13.00;;;7.77;;
6420;SDS011;3243;50.958;7.012;2023-11-21T00:06:28;10.97;;;7.37;;
6420;SDS011;3243;50.958;7.012;2023-11-21T00:08:56;12.03;;;7.20;;
6420;SDS011;3243;50.958;7.012;2023-11-21T00:11:23;14.97;;;8.07;;
6420;SDS011;3243;50.958;7.012;2023-11-21T00:13:51;14.13;;;7.03;;
6420;SDS011;3243;50.958;7.012;2023-11-21T00:16:18;11.27;;;6.70;;
6420;SDS011;3243;50.958;7.012;2023-11-21T00:18:45;9.53;;;6.97;;
6420;SDS011;3243;50.958;7.012;2023-11-21T00:21:12;11.83;;;6.93;;
6420;SDS011;3243;50.958;7.012;2023-11-21T00:23:40;9.70;;;6.40;;
6420;SDS011;3243;50.958;7.012;2023-11-21T00:26:07;11.77;;;5.93;;
6420;SDS011;3243;50.958;7.012;2023-11-21T00:28:34;11.33;;;6.47;;
6420;SDS011;3243;50.958;7.012;2023-11-21T00:31:00;8.80;;;6.50;;
6420;SDS011;3243;50.958;7.012;2023-11-21T00:33:28;10.00;;;5.77;;
6420;SDS011;3243;50.958;7.012;2023-11-21T00:35:54;7.27;;;5.50;;
6420;SDS011;3243;50.958;7.012;2023-11-21T00:38:22;10.60;;;6.07;;
6420;SDS011;3243;50.958;7.012;2023-11-21T00:40:49;9.40;;;5.93;;
6420;SDS011;3243;50.958;7.012;2023-11-21T00:43:16;9.50;;;6.47;;
6420;SDS011;3243;50.958;7.012;2023-11-21T00:45:43;9.97;;;6.37;;
6420;SDS011;3243;50.958;7.012;2023-11-21T00:48:10;9.50;;;6.00;;
6420;SDS011;3243;50.958;7.012;2023-11-21T00:50:38;9.10;;;5.87;;
6420;SDS011;3243;50.958;7.012;2023-11-21T00:53:05;12.13;;;5.97;;
6420;SDS011;3243;50.958;7.012;2023-11-21T00:55:33;11.70;;;7.30;;
6420;SDS011;3243;50.958;7.012;2023-11-21T00:58:01;12.10;;;6.47;;
6420;SDS011;3243;50.958;7.012;2023-11-21T01:00:30;14.70;;;7.73;;
6420;SDS011;3243;50.958;7.012;2023-11-21T01:02:57;10.93;;;7.77;;
6420;SDS011;3243;50.958;7.012;2023-11-21T01:05:24;13.50;;;7.50;;
6420;SDS011;3243;50.958;7.012;2023-11-21T01:07:51;12.37;;;8.10;;
6420;SDS011;3243;50.958;7.012;2023-11-21T01:10:18;14.00;;;7.60;;
6420;SDS011;3243;50.958;7.012;2023-11-21T01:12:45;11.83;;;7.60;;
6420;SDS011;3243;50.958;7.012;2023-11-21T01:15:12;15.90;;;8.93;;
6420;SDS011;3243;50.958;7.012;2023-11-21T01:17:39;17.50;;;9.33;;
6420;SDS011;3243;50.958;7.012;2023-11-21T01:20:07;15.47;;;8.77;;
6420;SDS011;3243;50.958;7.012;2023-11-21T01:22:38;19.60;;;9.70;;
6420;SDS011;3243;50.958;7.012;2023-11-21T01:25:05;14.10;;;9.73;;
6420;SDS011;3243;50.958;7.012;2023-11-21T01:27:34;19.30;;;10.30;;
6420;SDS011;3243;50.958;7.012;2023-11-21T01:30:01;14.97;;;9.57;;
6420;SDS011;3243;50.958;7.012;2023-11-21T01:32:29;12.23;;;8.53;;
6420;SDS011;3243;50.958;7.012;2023-11-21T01:34:56;10.70;;;8.23;;
6420;SDS011;3243;50.958;7.012;2023-11-21T01:37:22;14.30;;;9.37;;
6420;SDS011;3243;50.958;7.012;2023-11-21T01:39:49;16.23;;;9.90;;
6420;SDS011;3243;50.958;7.012;2023-11-21T01:42:16;13.80;;;8.80;;
6420;SDS011;3243;50.958;7.012;2023-11-21T01:44:44;15.87;;;9.67;;
6420;SDS011;3243;50.958;7.012;2023-11-21T01:47:12;17.73;;;9.87;;
6420;SDS011;3243;50.958;7.012;2023-11-21T01:49:40;13.23;;;9.30;;
6420;SDS011;3243;50.958;7.012;2023-11-21T01:52:08;12.73;;;8.47;;
6420;SDS011;3243;50.958;7.012;2023-11-21T01:54:37;15.77;;;9.47;;
6420;SDS011;3243;50.958;7.012;2023-11-21T01:57:04;11.43;;;8.17;;
6420;SDS011;3243;50.958;7.012;2023-11-21T01:59:36;13.33;;;8.90;;
6420;SDS011;3243;50.958;7.012;2023-11-21T02:02:06;15.60;;;9.77;;
6420;SDS011;3243;50.958;7.012;2023-11-21T02:04:33;12.93;;;8.97;;
6420;SDS011;3243;50.958;7.012;2023-11-21T02:07:01;15.07;;;10.03;;
6420;SDS011;3243;50.958;7.012;2023-11-21T02:09:31;11.70;;;8.87;;
6420;SDS011;3243;50.958;7.012;2023-11-21T02:11:59;12.50;;;8.90;;
6420;SDS011;3243;50.958;7.012;2023-11-21T02:14:27;16.10;;;8.83;;
6420;SDS011;3243;50.958;7.012;2023-11-21T02:16:54;14.10;;;9.77;;
6420;SDS011;3243;50.958;7.012;2023-11-21T02:19:23;13.20;;;9.00;;
6420;SDS011;3243;50.958;7.012;2023-11-21T02:21:54;13.13;;;9.07;;
6420;SDS011;3243;50.958;7.012;2023-11-21T02:24:25;17.10;;;8.63;;
6420;SDS011;3243;50.958;7.012;2023-11-21T02:26:53;14.70;;;9.93;;
6420;SDS011;3243;50.958;7.012;2023-11-21T02:29:21;14.23;;;10.00;;
6420;SDS011;3243;50.958;7.012;2023-11-21T02:31:52;13.97;;;9.20;;
6420;SDS011;3243;50.958;7.012;2023-11-21T02:34:21;13.97;;;9.57;;
6420;SDS011;3243;50.958;7.012;2023-11-21T02:36:49;12.43;;;9.23;;
6420;SDS011;3243;50.958;7.012;2023-11-21T02:39:16;16.70;;;9.90;;
6420;SDS011;3243;50.958;7.012;2023-11-21T02:41:44;14.70;;;10.60;;
6420;SDS011;3243;50.958;7.012;2023-11-21T02:44:10;15.10;;;10.00;;
6420;SDS011;3243;50.958;7.012;2023-11-21T02:46:37;13.50;;;8.83;;
6420;SDS011;3243;50.958;7.012;2023-11-21T02:49:05;14.13;;;9.27;;
6420;SDS011;3243;50.958;7.012;2023-11-21T02:51:33;17.80;;;11.30;;
6420;SDS011;3243;50.958;7.012;2023-11-21T02:54:00;15.13;;;9.97;;
6420;SDS011;3243;50.958;7.012;2023-11-21T02:56:29;20.20;;;13.30;;
6420;SDS011;3243;50.958;7.012;2023-11-21T02:58:56;17.93;;;12.20;;
6420;SDS011;3243;50.958;7.012;2023-11-21T03:01:23;21.03;;;12.77;;
6420;SDS011;3243;50.958;7.012;2023-11-21T03:03:50;21.17;;;12.17;;
6420;SDS011;3243;50.958;7.012;2023-11-21T03:06:18;13.40;;;10.80;;
6420;SDS011;3243;50.958;7.012;2023-11-21T03:08:45;20.70;;;13.67;;
6420;SDS011;3243;50.958;7.012;2023-11-21T03:11:13;18.93;;;11.57;;
6420;SDS011;3243;50.958;7.012;2023-11-21T03:13:43;19.93;;;12.33;;
6420;SDS011;3243;50.958;7.012;2023-11-21T03:16:10;17.83;;;11.80;;
6420;SDS011;3243;50.958;7.012;2023-11-21T03:18:37;15.33;;;10.73;;
6420;SDS011;3243;50.958;7.012;2023-11-21T03:21:05;17.13;;;11.30;;
6420;SDS011;3243;50.958;7.012;2023-11-21T03:23:35;19.80;;;12.73;;
6420;SDS011;3243;50.958;7.012;2023-11-21T03:26:02;25.40;;;14.23;;
6420;SDS011;3243;50.958;7.012;2023-11-21T03:28:30;21.87;;;13.27;;
6420;SDS011;3243;50.958;7.012;2023-11-21T03:30:57;22.33;;;12.97;;
6420;SDS011;3243;50.958;7.012;2023-11-21T03:33:23;19.90;;;12.63;;
6420;SDS011;3243;50.958;7.012;2023-11-21T03:35:51;19.03;;;10.93;;
6420;SDS011;3243;50.958;7.012;2023-11-21T03:38:19;22.60;;;12.33;;
6420;SDS011;3243;50.958;7.012;2023-11-21T03:40:46;18.33;;;11.63;;
6420;SDS011;3243;50.958;7.012;2023-11-21T03:43:14;21.93;;;12.23;;
6420;SDS011;3243;50.958;7.012;2023-11-21T03:45:41;17.97;;;11.50;;
6420;SDS011;3243;50.958;7.012;2023-11-21T03:48:08;20.57;;;12.40;;
6420;SDS011;3243;50.958;7.012;2023-11-21T03:50:35;18.07;;;11.67;;
6420;SDS011;3243;50.958;7.012;2023-11-21T03:53:02;17.43;;;11.23;;
6420;SDS011;3243;50.958;7.012;2023-11-21T03:55:29;18.93;;;11.87;;
6420;SDS011;3243;50.958;7.012;2023-11-21T03:57:58;23.90;;;13.13;;
6420;SDS011;3243;50.958;7.012;2023-11-21T04:00:25;19.33;;;12.07;;
6420;SDS011;3243;50.958;7.012;2023-11-21T04:02:53;15.30;;;11.07;;
6420;SDS011;3243;50.958;7.012;2023-11-21T04:05:20;18.47;;;11.30;;
6420;SDS011;3243;50.958;7.012;2023-11-21T04:07:50;18.30;;;12.33;;
6420;SDS011;3243;50.958;7.012;2023-11-21T04:10:17;21.93;;;12.30;;
6420;SDS011;3243;50.958;7.012;2023-11-21T04:12:45;21.10;;;13.50;;
6420;SDS011;3243;50.958;7.012;2023-11-21T04:15:12;18.77;;;12.23;;
6420;SDS011;3243;50.958;7.012;2023-11-21T04:17:40;19.70;;;11.63;;
6420;SDS011;3243;50.958;7.012;2023-11-21T04:20:08;19.40;;;12.73;;
6420;SDS011;3243;50.958;7.012;2023-11-21T04:22:36;20.77;;;12.53;;
6420;SDS011;3243;50.958;7.012;2023-11-21T04:25:08;19.87;;;11.20;;
6420;SDS011;3243;50.958;7.012;2023-11-21T04:27:40;17.63;;;11.83;;
6420;SDS011;3243;50.958;7.012;2023-11-21T04:30:13;18.00;;;12.20;;
6420;SDS011;3243;50.958;7.012;2023-11-21T04:32:40;18.33;;;12.03;;
6420;SDS011;3243;50.958;7.012;2023-11-21T04:35:08;19.17;;;11.57;;
6420;SDS011;3243;50.958;7.012;2023-11-21T04:37:35;21.13;;;12.63;;
6420;SDS011;3243;50.958;7.012;2023-11-21T04:40:02;22.53;;;12.07;;
6420;SDS011;3243;50.958;7.012;2023-11-21T04:42:34;24.60;;;12.80;;
6420;SDS011;3243;50.958;7.012;2023-11-21T04:45:01;18.50;;;11.30;;
6420;SDS011;3243;50.958;7.012;2023-11-21T04:47:33;17.23;;;11.47;;
6420;SDS011;3243;50.958;7.012;2023-11-21T04:50:01;25.77;;;13.20;;
6420;SDS011;3243;50.958;7.012;2023-11-21T04:52:29;22.37;;;13.43;;
6420;SDS011;3243;50.958;7.012;2023-11-21T04:54:56;21.67;;;14.20;;
6420;SDS011;3243;50.958;7.012;2023-11-21T04:57:24;25.60;;;14.77;;
6420;SDS011;3243;50.958;7.012;2023-11-21T04:59:51;24.47;;;14.57;;
6420;SDS011;3243;50.958;7.012;2023-11-21T05:02:18;22.70;;;14.17;;
6420;SDS011;3243;50.958;7.012;2023-11-21T05:05:01;19.53;;;12.90;;
6420;SDS011;3243;50.958;7.012;2023-11-21T05:07:28;19.00;;;13.10;;
6420;SDS011;3243;50.958;7.012;2023-11-21T05:09:58;18.27;;;12.83;;
6420;SDS011;3243;50.958;7.012;2023-11-21T05:12:25;22.63;;;13.33;;
6420;SDS011;3243;50.958;7.012;2023-11-21T05:14:52;19.20;;;12.93;;
6420;SDS011;3243;50.958;7.012;2023-11-21T05:17:18;17.70;;;12.97;;
6420;SDS011;3243;50.958;7.012;2023-11-21T05:19:46;19.63;;;12.87;;
6420;SDS011;3243;50.958;7.012;2023-11-21T05:22:15;20.83;;;12.80;;
6420;SDS011;3243;50.958;7.012;2023-11-21T05:24:42;22.67;;;14.07;;
6420;SDS011;3243;50.958;7.012;2023-11-21T05:27:09;27.13;;;15.13;;
6420;SDS011;3243;50.958;7.012;2023-11-21T05:29:36;22.47;;;14.90;;
6420;SDS011;3243;50.958;7.012;2023-11-21T05:32:04;22.07;;;13.83;;
6420;SDS011;3243;50.958;7.012;2023-11-21T05:34:31;23.50;;;15.00;;
6420;SDS011;3243;50.958;7.012;2023-11-21T05:36:58;21.57;;;14.47;;
6420;SDS011;3243;50.958;7.012;2023-11-21T05:39:25;23.87;;;16.50;;
6420;SDS011;3243;50.958;7.012;2023-11-21T05:41:54;24.97;;;14.97;;
6420;SDS011;3243;50.958;7.012;2023-11-21T05:44:21;25.10;;;14.97;;
6420;SDS011;3243;50.958;7.012;2023-11-21T05:46:49;24.33;;;14.90;;
6420;SDS011;3243;50.958;7.012;2023-11-21T05:49:16;27.00;;;16.27;;
6420;SDS011;3243;50.958;7.012;2023-11-21T05:51:43;26.43;;;16.27;;
6420;SDS011;3243;50.958;7.012;2023-11-21T05:54:11;25.40;;;15.63;;
6420;SDS011;3243;50.958;7.012;2023-11-21T05:56:38;28.47;;;16.87;;
6420;SDS011;3243;50.958;7.012;2023-11-21T05:59:05;20.37;;;14.43;;
6420;SDS011;3243;50.958;7.012;2023-11-21T06:01:33;22.00;;;14.50;;
6420;SDS011;3243;50.958;7.012;2023-11-21T06:04:00;25.47;;;14.63;;
6420;SDS011;3243;50.958;7.012;2023-11-21T06:06:27;24.50;;;14.83;;
6420;SDS011;3243;50.958;7.012;2023-11-21T06:08:54;24.57;;;15.00;;
6420;SDS011;3243;50.958;7.012;2023-11-21T06:11:21;25.47;;;15.73;;
6420;SDS011;3243;50.958;7.012;2023-11-21T06:13:48;24.10;;;15.27;;
6420;SDS011;3243;50.958;7.012;2023-11-21T06:16:16;28.33;;;16.83;;
6420;SDS011;3243;50.958;7.012;2023-11-21T06:18:45;32.73;;;17.30;;
6420;SDS011;3243;50.958;7.012;2023-11-21T06:21:12;25.43;;;15.80;;
6420;SDS011;3243;50.958;7.012;2023-11-21T06:23:40;25.67;;;15.13;;
6420;SDS011;3243;50.958;7.012;2023-11-21T06:26:07;26.73;;;15.50;;
6420;SDS011;3243;50.958;7.012;2023-11-21T06:28:35;28.13;;;15.27;;
6420;SDS011;3243;50.958;7.012;2023-11-21T06:31:02;25.60;;;15.60;;
6420;SDS011;3243;50.958;7.012;2023-11-21T06:33:32;25.50;;;14.80;;
6420;SDS011;3243;50.958;7.012;2023-11-21T06:35:59;26.77;;;15.13;;
6420;SDS011;3243;50.958;7.012;2023-11-21T06:38:29;23.37;;;15.00;;
6420;SDS011;3243;50.958;7.012;2023-11-21T06:40:58;28.27;;;15.67;;
6420;SDS011;3243;50.958;7.012;2023-11-21T06:43:28;27.57;;;15.27;;
6420;SDS011;3243;50.958;7.012;2023-11-21T06:45:57;30.30;;;15.87;;
6420;SDS011;3243;50.958;7.012;2023-11-21T06:48:24;29.10;;;16.70;;
6420;SDS011;3243;50.958;7.012;2023-11-21T06:50:51;24.33;;;15.23;;
6420;SDS011;3243;50.958;7.012;2023-11-21T06:53:19;34.23;;;17.03;;
6420;SDS011;3243;50.958;7.012;2023-11-21T06:55:45;26.23;;;14.90;;
6420;SDS011;3243;50.958;7.012;2023-11-21T06:58:12;27.23;;;15.73;;
6420;SDS011;3243;50.958;7.012;2023-11-21T07:00:41;28.97;;;15.23;;
6420;SDS011;3243;50.958;7.012;2023-11-21T07:03:12;25.40;;;14.73;;
6420;SDS011;3243;50.958;7.012;2023-11-21T07:05:39;28.43;;;15.83;;
6420;SDS011;3243;50.958;7.012;2023-11-21T07:08:06;29.03;;;16.07;;
6420;SDS011;3243;50.958;7.012;2023-11-21T07:10:33;28.37;;;16.47;;
6420;SDS011;3243;50.958;7.012;2023-11-21T07:13:01;29.67;;;16.63;;
6420;SDS011;3243;50.958;7.012;2023-11-21T07:15:28;25.60;;;16.37;;
6420;SDS011;3243;50.958;7.012;2023-11-21T07:17:55;27.43;;;16.23;;
6420;SDS011;3243;50.958;7.012;2023-11-21T07:20:22;27.60;;;17.13;;
6420;SDS011;3243;50.958;7.012;2023-11-21T07:22:49;30.53;;;17.77;;
6420;SDS011;3243;50.958;7.012;2023-11-21T07:25:16;23.20;;;16.33;;
6420;SDS011;3243;50.958;7.012;2023-11-21T07:27:43;30.57;;;16.53;;
6420;SDS011;3243;50.958;7.012;2023-11-21T07:30:11;26.90;;;17.00;;
6420;SDS011;3243;50.958;7.012;2023-11-21T07:32:39;28.57;;;16.43;;
6420;SDS011;3243;50.958;7.012;2023-11-21T07:35:07;25.67;;;16.60;;
6420;SDS011;3243;50.958;7.012;2023-11-21T07:37:34;27.73;;;17.23;;
6420;SDS011;3243;50.958;7.012;2023-11-21T07:40:01;26.20;;;16.30;;
6420;SDS011;3243;50.958;7.012;2023-11-21T07:42:29;28.57;;;15.90;;
6420;SDS011;3243;50.958;7.012;2023-11-21T07:44:56;26.87;;;17.10;;
6420;SDS011;3243;50.958;7.012;2023-11-21T07:47:23;30.40;;;17.23;;
6420;SDS011;3243;50.958;7.012;2023-11-21T07:49:53;30.20;;;17.63;;
6420;SDS011;3243;50.958;7.012;2023-11-21T07:52:22;30.40;;;17.90;;
6420;SDS011;3243;50.958;7.012;2023-11-21T07:54:49;30.53;;;17.70;;
6420;SDS011;3243;50.958;7.012;2023-11-21T07:57:17;26.20;;;17.47;;
6420;SDS011;3243;50.958;7.012;2023-11-21T07:59:44;32.90;;;19.47;;
6420;SDS011;3243;50.958;7.012;2023-11-21T08:02:11;33.50;;;18.47;;
6420;SDS011;3243;50.958;7.012;2023-11-21T08:04:38;29.87;;;17.83;;
6420;SDS011;3243;50.958;7.012;2023-11-21T08:07:05;29.53;;;18.20;;
6420;SDS011;3243;50.958;7.012;2023-11-21T08:09:32;33.57;;;19.07;;
6420;SDS011;3243;50.958;7.012;2023-11-21T08:12:00;34.67;;;19.90;;
6420;SDS011;3243;50.958;7.012;2023-11-21T08:14:28;36.87;;;20.50;;
6420;SDS011;3243;50.958;7.012;2023-11-21T08:16:55;38.97;;;22.53;;
6420;SDS011;3243;50.958;7.012;2023-11-21T08:19:24;38.27;;;20.07;;
6420;SDS011;3243;50.958;7.012;2023-11-21T08:21:54;35.33;;;19.93;;
6420;SDS011;3243;50.958;7.012;2023-11-21T08:24:21;34.03;;;19.73;;
6420;SDS011;3243;50.958;7.012;2023-11-21T08:26:48;37.43;;;19.43;;
6420;SDS011;3243;50.958;7.012;2023-11-21T08:29:16;32.37;;;19.90;;
6420;SDS011;3243;50.958;7.012;2023-11-21T08:31:43;35.97;;;20.90;;
6420;SDS011;3243;50.958;7.012;2023-11-21T08:34:13;39.90;;;21.53;;
6420;SDS011;3243;50.958;7.012;2023-11-21T08:36:42;37.90;;;23.17;;
6420;SDS011;3243;50.958;7.012;2023-11-21T08:39:09;44.90;;;23.93;;
6420;SDS011;3243;50.958;7.012;2023-11-21T08:41:36;43.20;;;23.00;;
6420;SDS011;3243;50.958;7.012;2023-11-21T08:44:03;42.90;;;22.50;;
6420;SDS011;3243;50.958;7.012;2023-11-21T08:46:33;42.17;;;22.17;;
6420;SDS011;3243;50.958;7.012;2023-11-21T08:49:01;35.10;;;21.87;;
6420;SDS011;3243;50.958;7.012;2023-11-21T08:51:28;48.17;;;24.17;;
6420;SDS011;3243;50.958;7.012;2023-11-21T08:53:55;44.73;;;23.57;;
6420;SDS011;3243;50.958;7.012;2023-11-21T08:56:25;39.57;;;22.67;;
6420;SDS011;3243;50.958;7.012;2023-11-21T08:58:52;44.90;;;23.13;;
6420;SDS011;3243;50.958;7.012;2023-11-21T09:01:19;42.23;;;22.30;;
6420;SDS011;3243;50.958;7.012;2023-11-21T09:03:47;37.87;;;20.87;;
6420;SDS011;3243;50.958;7.012;2023-11-21T09:06:16;39.63;;;20.63;;
6420;SDS011;3243;50.958;7.012;2023-11-21T09:08:43;41.63;;;21.97;;
6420;SDS011;3243;50.958;7.012;2023-11-21T09:11:10;41.23;;;21.87;;
6420;SDS011;3243;50.958;7.012;2023-11-21T09:13:37;40.37;;;21.30;;
6420;SDS011;3243;50.958;7.012;2023-11-21T09:16:04;34.63;;;19.70;;
6420;SDS011;3243;50.958;7.012;2023-11-21T09:18:32;35.33;;;21.30;;
6420;SDS011;3243;50.958;7.012;2023-11-21T09:20:58;45.87;;;22.33;;
6420;SDS011;3243;50.958;7.012;2023-11-21T09:23:25;45.10;;;21.83;;
6420;SDS011;3243;50.958;7.012;2023-11-21T09:25:52;37.53;;;20.60;;
6420;SDS011;3243;50.958;7.012;2023-11-21T09:28:23;43.27;;;21.63;;
6420;SDS011;3243;50.958;7.012;2023-11-21T09:30:49;41.03;;;21.27;;
6420;SDS011;3243;50.958;7.012;2023-11-21T09:33:17;35.83;;;19.03;;
6420;SDS011;3243;50.958;7.012;2023-11-21T09:35:44;38.93;;;20.33;;
6420;SDS011;3243;50.958;7.012;2023-11-21T09:38:11;38.80;;;20.23;;
6420;SDS011;3243;50.958;7.012;2023-11-21T09:40:38;41.87;;;20.67;;
6420;SDS011;3243;50.958;7.012;2023-11-21T09:43:15;40.93;;;20.67;;
6420;SDS011;3243;50.958;7.012;2023-11-21T09:45:46;42.50;;;21.23;;
6420;SDS011;3243;50.958;7.012;2023-11-21T09:48:17;43.37;;;21.70;;
6420;SDS011;3243;50.958;7.012;2023-11-21T09:50:44;40.07;;;20.17;;
6420;SDS011;3243;50.958;7.012;2023-11-21T09:53:17;35.60;;;19.83;;
6420;SDS011;3243;50.958;7.012;2023-11-21T09:55:48;42.80;;;20.40;;
6420;SDS011;3243;50.958;7.012;2023-11-21T09:58:18;43.77;;;21.13;;
6420;SDS011;3243;50.958;7.012;2023-11-21T10:00:47;30.77;;;18.47;;
6420;SDS011;3243;50.958;7.012;2023-11-21T10:03:15;32.70;;;18.80;;
6420;SDS011;3243;50.958;7.012;2023-11-21T10:05:43;37.07;;;20.37;;
6420;SDS011;3243;50.958;7.012;2023-11-21T10:08:12;39.50;;;21.87;;
6420;SDS011;3243;50.958;7.012;2023-11-21T10:10:42;42.70;;;21.30;;
6420;SDS011;3243;50.958;7.012;2023-11-21T10:13:16;39.07;;;20.87;;
6420;SDS011;3243;50.958;7.012;2023-11-21T10:15:51;41.80;;;21.43;;
6420;SDS011;3243;50.958;7.012;2023-11-21T10:18:19;39.40;;;20.07;;
6420;SDS011;3243;50.958;7.012;2023-11-21T10:20:49;42.03;;;21.70;;
6420;SDS011;3243;50.958;7.012;2023-11-21T10:23:20;36.07;;;20.63;;
6420;SDS011;3243;50.958;7.012;2023-11-21T10:25:50;37.67;;;21.07;;
6420;SDS011;3243;50.958;7.012;2023-11-21T10:28:19;35.77;;;19.93;;
6420;SDS011;3243;50.958;7.012;2023-11-21T10:30:47;37.40;;;20.17;;
6420;SDS011;3243;50.958;7.012;2023-11-21T10:33:14;31.20;;;19.03;;
6420;SDS011;3243;50.958;7.012;2023-11-21T10:38:08;40.83;;;23.00;;
6420;SDS011;3243;50.958;7.012;2023-11-21T10:40:43;45.37;;;25.17;;
6420;SDS011;3243;50.958;7.012;2023-11-21T10:43:11;44.47;;;24.47;;
6420;SDS011;3243;50.958;7.012;2023-11-21T10:45:42;49.73;;;25.50;;
6420;SDS011;3243;50.958;7.012;2023-11-21T10:48:10;44.67;;;25.77;;
6420;SDS011;3243;50.958;7.012;2023-11-21T10:50:42;54.90;;;27.50;;
6420;SDS011;3243;50.958;7.012;2023-11-21T10:53:10;49.03;;;24.93;;
6420;SDS011;3243;50.958;7.012;2023-11-21T10:55:38;51.93;;;26.60;;
6420;SDS011;3243;50.958;7.012;2023-11-21T10:58:05;50.23;;;26.07;;
6420;SDS011;3243;50.958;7.012;2023-11-21T11:00:33;57.30;;;28.03;;
6420;SDS011;3243;50.958;7.012;2023-11-21T11:03:00;59.27;;;29.83;;
6420;SDS011;3243;50.958;7.012;2023-11-21T11:05:29;47.70;;;26.13;;
6420;SDS011;3243;50.958;7.012;2023-11-21T11:07:59;57.40;;;27.47;;
6420;SDS011;3243;50.958;7.012;2023-11-21T11:10:29;53.90;;;27.63;;
6420;SDS011;3243;50.958;7.012;2023-11-21T11:12:56;49.83;;;27.23;;
6420;SDS011;3243;50.958;7.012;2023-11-21T11:15:24;50.57;;;26.83;;
6420;SDS011;3243;50.958;7.012;2023-11-21T11:17:53;48.50;;;25.13;;
6420;SDS011;3243;50.958;7.012;2023-11-21T11:20:25;43.07;;;23.23;;
6420;SDS011;3243;50.958;7.012;2023-11-21T11:23:23;42.87;;;23.77;;
6420;SDS011;3243;50.958;7.012;2023-11-21T11:29:01;41.40;;;23.63;;
6420;SDS011;3243;50.958;7.012;2023-11-21T11:31:48;38.43;;;22.00;;
6420;SDS011;3243;50.958;7.012;2023-11-21T11:34:46;41.67;;;24.57;;
6420;SDS011;3243;50.958;7.012;2023-11-21T11:37:24;35.57;;;21.37;;
6420;SDS011;3243;50.958;7.012;2023-11-21T11:39:51;43.30;;;22.17;;
6420;SDS011;3243;50.958;7.012;2023-11-21T11:42:21;38.20;;;20.60;;
6420;SDS011;3243;50.958;7.012;2023-11-21T11:44:50;39.43;;;20.87;;
6420;SDS011;3243;50.958;7.012;2023-11-21T11:47:23;37.67;;;21.30;;
6420;SDS011;3243;50.958;7.012;2023-11-21T11:50:02;33.93;;;19.97;;
6420;SDS011;3243;50.958;7.012;2023-11-21T11:52:38;39.20;;;20.70;;
6420;SDS011;3243;50.958;7.012;2023-11-21T11:55:10;33.20;;;19.57;;
6420;SDS011;3243;50.958;7.012;2023-11-21T11:57:45;29.73;;;16.57;;
6420;SDS011;3243;50.958;7.012;2023-11-21T12:02:48;35.07;;;19.67;;
6420;SDS011;3243;50.958;7.012;2023-11-21T12:05:21;33.87;;;18.93;;
6420;SDS011;3243;50.958;7.012;2023-11-21T12:07:50;37.43;;;18.73;;
6420;SDS011;3243;50.958;7.012;2023-11-21T12:10:24;33.10;;;18.60;;
6420;SDS011;3243;50.958;7.012;2023-11-21T12:12:59;40.80;;;19.03;;
6420;SDS011;3243;50.958;7.012;2023-11-21T12:15:34;33.30;;;18.33;;
6420;SDS011;3243;50.958;7.012;2023-11-21T12:18:04;31.63;;;17.97;;
6420;SDS011;3243;50.958;7.012;2023-11-21T12:20:32;35.27;;;17.77;;
6420;SDS011;3243;50.958;7.012;2023-11-21T12:23:05;30.73;;;17.30;;
6420;SDS011;3243;50.958;7.012;2023-11-21T12:25:32;33.00;;;17.37;;
6420;SDS011;3243;50.958;7.012;2023-11-21T12:28:00;31.50;;;18.03;;
6420;SDS011;3243;50.958;7.012;2023-11-21T12:30:30;32.70;;;18.20;;
6420;SDS011;3243;50.958;7.012;2023-11-21T12:32:59;28.17;;;16.90;;
6420;SDS011;3243;50.958;7.012;2023-11-21T12:35:31;27.87;;;16.00;;
6420;SDS011;3243;50.958;7.012;2023-11-21T12:38:03;32.93;;;18.17;;
6420;SDS011;3243;50.958;7.012;2023-11-21T12:40:31;31.37;;;16.93;;
6420;SDS011;3243;50.958;7.012;2023-11-21T12:42:59;31.23;;;16.63;;
6420;SDS011;3243;50.958;7.012;2023-11-21T12:45:28;32.13;;;16.10;;
6420;SDS011;3243;50.958;7.012;2023-11-21T12:48:05;34.10;;;16.90;;
6420;SDS011;3243;50.958;7.012;2023-11-21T12:50:38;38.20;;;18.40;;
6420;SDS011;3243;50.958;7.012;2023-11-21T12:53:10;38.50;;;18.57;;
6420;SDS011;3243;50.958;7.012;2023-11-21T12:55:43;36.83;;;18.73;;
6420;SDS011;3243;50.958;7.012;2023-11-21T12:58:16;36.07;;;18.50;;
6420;SDS011;3243;50.958;7.012;2023-11-21T13:00:44;39.47;;;19.67;;
6420;SDS011;3243;50.958;7.012;2023-11-21T13:03:13;35.97;;;18.20;;
6420;SDS011;3243;50.958;7.012;2023-11-21T13:05:52;36.90;;;20.03;;
6420;SDS011;3243;50.958;7.012;2023-11-21T13:08:25;41.17;;;19.87;;
6420;SDS011;3243;50.958;7.012;2023-11-21T13:10:53;39.47;;;19.80;;
6420;SDS011;3243;50.958;7.012;2023-11-21T13:13:22;38.73;;;19.53;;
6420;SDS011;3243;50.958;7.012;2023-11-21T13:15:55;36.53;;;19.77;;
6420;SDS011;3243;50.958;7.012;2023-11-21T13:18:23;32.73;;;17.40;;
6420;SDS011;3243;50.958;7.012;2023-11-21T13:20:56;36.80;;;18.97;;
6420;SDS011;3243;50.958;7.012;2023-11-21T13:23:34;43.37;;;19.43;;
6420;SDS011;3243;50.958;7.012;2023-11-21T13:26:02;41.23;;;20.53;;
6420;SDS011;3243;50.958;7.012;2023-11-21T13:28:33;41.83;;;19.23;;
6420;SDS011;3243;50.958;7.012;2023-11-21T13:31:01;38.10;;;19.07;;
6420;SDS011;3243;50.958;7.012;2023-11-21T13:33:37;34.70;;;18.03;;
6420;SDS011;3243;50.958;7.012;2023-11-21T13:36:05;35.63;;;17.33;;
6420;SDS011;3243;50.958;7.012;2023-11-21T13:38:35;36.27;;;18.07;;
6420;SDS011;3243;50.958;7.012;2023-11-21T13:41:06;34.87;;;17.57;;
6420;SDS011;3243;50.958;7.012;2023-11-21T13:43:36;32.87;;;17.00;;
6420;SDS011;3243;50.958;7.012;2023-11-21T13:46:04;33.73;;;16.63;;
6420;SDS011;3243;50.958;7.012;2023-11-21T13:48:43;35.90;;;17.97;;
6420;SDS011;3243;50.958;7.012;2023-11-21T13:51:17;35.87;;;18.00;;
6420;SDS011;3243;50.958;7.012;2023-11-21T13:53:47;35.33;;;17.80;;
6420;SDS011;3243;50.958;7.012;2023-11-21T13:56:17;34.87;;;18.13;;
6420;SDS011;3243;50.958;7.012;2023-11-21T13:58:51;37.73;;;18.70;;
6420;SDS011;3243;50.958;7.012;2023-11-21T14:01:20;32.07;;;17.70;;
6420;SDS011;3243;50.958;7.012;2023-11-21T14:03:57;41.77;;;20.37;;
6420;SDS011;3243;50.958;7.012;2023-11-21T14:06:42;36.13;;;18.67;;
6420;SDS011;3243;50.958;7.012;2023-11-21T14:09:19;40.30;;;19.83;;
6420;SDS011;3243;50.958;7.012;2023-11-21T14:11:52;43.43;;;19.57;;
6420;SDS011;3243;50.958;7.012;2023-11-21T14:14:23;34.77;;;19.13;;
6420;SDS011;3243;50.958;7.012;2023-11-21T14:16:52;36.10;;;17.50;;
6420;SDS011;3243;50.958;7.012;2023-11-21T14:19:19;36.60;;;17.63;;
6420;SDS011;3243;50.958;7.012;2023-11-21T14:21:47;35.13;;;18.60;;
6420;SDS011;3243;50.958;7.012;2023-11-21T14:24:15;38.70;;;18.83;;
6420;SDS011;3243;50.958;7.012;2023-11-21T14:26:45;44.47;;;20.40;;
6420;SDS011;3243;50.958;7.012;2023-11-21T14:29:13;41.73;;;19.53;;
6420;SDS011;3243;50.958;7.012;2023-11-21T14:31:46;41.70;;;19.50;;
6420;SDS011;3243;50.958;7.012;2023-11-21T14:34:15;40.87;;;21.47;;
6420;SDS011;3243;50.958;7.012;2023-11-21T14:36:47;41.57;;;20.47;;
6420;SDS011;3243;50.958;7.012;2023-11-21T14:39:16;45.17;;;21.27;;
6420;SDS011;3243;50.958;7.012;2023-11-21T14:41:50;47.70;;;22.27;;
6420;SDS011;3243;50.958;7.012;2023-11-21T14:44:19;48.70;;;22.53;;
6420;SDS011;3243;50.958;7.012;2023-11-21T14:46:49;50.63;;;23.47;;
6420;SDS011;3243;50.958;7.012;2023-11-21T14:49:17;51.03;;;24.40;;
6420;SDS011;3243;50.958;7.012;2023-11-21T14:51:47;47.87;;;23.03;;
6420;SDS011;3243;50.958;7.012;2023-11-21T14:54:30;47.57;;;22.83;;
6420;SDS011;3243;50.958;7.012;2023-11-21T14:57:09;50.13;;;23.00;;
6420;SDS011;3243;50.958;7.012;2023-11-21T14:59:45;50.80;;;24.67;;
6420;SDS011;3243;50.958;7.012;2023-11-21T15:02:18;51.70;;;23.97;;
6420;SDS011;3243;50.958;7.012;2023-11-21T15:04:49;60.47;;;25.97;;
6420;SDS011;3243;50.958;7.012;2023-11-21T15:07:25;58.53;;;26.70;;
6420;SDS011;3243;50.958;7.012;2023-11-21T15:09:53;54.57;;;25.27;;